Grande Pointe, Florida
Current Conditions -  °F | °C
As of 3:53 PM on Monday 26 Jan 2015 (Local Time) from KECP Reporting Station
Clear Clear  
Wind Chill: 56°   Ceiling: Unl
Heat Index: 56°   Visibility: 10mi
Dew Point: 37°   Wind: 13mph
Humidity: 49%   Direction: 310°NW
Pressure: 29.94"   Gusts: NA
Location:  30.3525°N, 85.9093°W
Report Text: KECP 262153Z 31011KT 10SM CLR 13/03 A2994 RMK AO2 SLP151 T01330028 $
Loading
Personal Weather Stations






























Interactive Weather Map New forecast layout! Learn more

10-Day Weather Forecast

Advertisements
Track Severe Weather on mobile